Scroll down
FLIGHT INFORMATION
Delta Air Lines

DAL234

Returned to Gate

KSLC
 KSLC
[Original Destination: KSLC ]
DATE:  -
GATE:  -
GATE DEPARTURE: 21:24
TAKEOFF:  -
DATE:  -
GATE:  -
LANDING:  -
GATE ARRIVAL:  -
FLIGHT DATA
Crew: 
Speed: 
0 kts
Altitude: 
4,285 ft
Stage Length: 
319.6 nm
Block Time: 
0.1 hrs
Flight Time: 
-  hrs
Fuel Used: 
0 lb
Cleared Route: 
TRACK DATA
50,000 ft 1,000 kts
AIRCRAFT INFO AND CUMULATIVE STATS
Aircraft Type: 
B738BW
Registration: 
SELCAL: 
MSN/LN: 
30379 / 657
Operator: 
Total Flights: 
10
Total Block Time: 
22.8 hrs
Total Flight Time: 
21.4 hrs
Total Fuel Used: 
82,503 lb
DATALINK LOG | Newest first | Current as of: 2022-11-26 08:38:45
LABEL SEQUENCE CONTENT Dn/Up
5U4504KSLC 202104Z 2021/2124 29007KT P6SM VCSH SCT035 OVC060 FM211000 15006KT P6SM VCSH BKN050▲ Up
5U4504KLAS 202053Z 2021/2124 34006KT P6SM VCSH SCT050 BKN100 FM202200 16012G18KT P6SM VCSH SCT050 BKN100 FM210100 17011KT P6SM VCSH SCT050 BKN100 FM210700 21008KT P6SM -SHRA BKN040 FM211400 VRB06KT P6SM -SHRA BKN030▲ Up
5S3351KSLC KLAS▼ Dn
2U4504KLAS 202056Z 04006KT 10SM -RA SCT048 SCT090 BKN100 15/12 A2948 RMK AO2 LTG DSNT SW RAB1958E09B43 SLP972 TCU DSNT N P0000 60002 T01500117 58015 $▲ Up
2S3343KLAS▼ Dn
A34303CLEARED TO KLAS VIA KSLC KLAS DL234 N399DA . SQUAWK 0054.▲ Up
B33156KSLC KLAS DL234 N399DA ▼ Dn
Q02834[LINK TEST]▼ Dn
Q04001[LINK ACK]▲ Up


AIRCRAFT HISTORY
FLIGHT DATE FLIGHT NO. ORIGIN DESTINATION CLEARED ROUTE BLOCK TIME FLIGHT TIME FUEL USED PILOT
2021-07-11DAL519KBZN KSFO KBZN GALTN RANCR TEERX HIA KSFO2.3 hrs2.1 hrs13,012 lbChemtrails
2020-04-09DAL413KSLC KBZN 1.3 hrs1.1 hrs6,760 lbCharles Harris
2020-01-06DAL841KPHX KSLC 1.6 hrs1.4 hrs8,574 lbAaron Buchanan
2019-12-23DAL1223KDEN KPHX 9 hrs9.7 hrs9,791 lbAaron Buchanan
2019-12-17DAL223KRNO KDEN 2.2 hrs1.9 hrs11,001 lbCharles Harris
2019-12-03DAL1202KPDX KRNO 1.4 hrs1.1 hrs7,724 lbCharles Harris
2019-11-22DAL1734KLAS KPDX 2.2 hrs1.9 hrs11,300 lbAaron Buchanan
2019-11-21DAL567KSLC KLAS 1.2 hrs1 hrs6,542 lbJhan Jensen
2019-11-20DAL234KSLC KSLC 0.1 hrs0 hrs0 lbJhan Jensen
2019-11-18DAL1118KRNO KSLC 1.5 hrs1.2 hrs7,799 lbCharles Harris